sensor_id;sensor_type;location;lat;lon;timestamp;P1;durP1;ratioP1;P2;durP2;ratioP2
18082;SDS011;9168;51.194;6.840;2024-02-21T00:02:09;25.67;;;7.40;;
18082;SDS011;9168;51.194;6.840;2024-02-21T00:04:36;23.58;;;6.68;;
18082;SDS011;9168;51.194;6.840;2024-02-21T00:07:03;20.73;;;6.75;;
18082;SDS011;9168;51.194;6.840;2024-02-21T00:09:30;14.70;;;6.07;;
18082;SDS011;9168;51.194;6.840;2024-02-21T00:11:57;15.93;;;5.47;;
18082;SDS011;9168;51.194;6.840;2024-02-21T00:14:26;20.48;;;6.45;;
18082;SDS011;9168;51.194;6.840;2024-02-21T00:16:53;15.35;;;6.18;;
18082;SDS011;9168;51.194;6.840;2024-02-21T00:19:19;18.02;;;5.75;;
18082;SDS011;9168;51.194;6.840;2024-02-21T00:21:47;19.05;;;5.80;;
18082;SDS011;9168;51.194;6.840;2024-02-21T00:24:13;21.23;;;6.15;;
18082;SDS011;9168;51.194;6.840;2024-02-21T00:26:41;19.38;;;6.20;;
18082;SDS011;9168;51.194;6.840;2024-02-21T00:29:10;21.33;;;6.43;;
18082;SDS011;9168;51.194;6.840;2024-02-21T00:31:38;20.25;;;6.35;;
18082;SDS011;9168;51.194;6.840;2024-02-21T00:34:05;30.40;;;6.32;;
18082;SDS011;9168;51.194;6.840;2024-02-21T00:36:32;30.23;;;6.93;;
18082;SDS011;9168;51.194;6.840;2024-02-21T00:38:58;17.10;;;5.65;;
18082;SDS011;9168;51.194;6.840;2024-02-21T00:41:25;24.63;;;6.45;;
18082;SDS011;9168;51.194;6.840;2024-02-21T00:43:52;26.40;;;6.95;;
18082;SDS011;9168;51.194;6.840;2024-02-21T00:46:19;22.27;;;5.63;;
18082;SDS011;9168;51.194;6.840;2024-02-21T00:48:47;26.55;;;6.25;;
18082;SDS011;9168;51.194;6.840;2024-02-21T00:51:15;22.58;;;6.38;;
18082;SDS011;9168;51.194;6.840;2024-02-21T00:53:42;23.42;;;6.32;;
18082;SDS011;9168;51.194;6.840;2024-02-21T00:56:09;24.27;;;6.00;;
18082;SDS011;9168;51.194;6.840;2024-02-21T00:58:36;21.30;;;6.85;;
18082;SDS011;9168;51.194;6.840;2024-02-21T01:01:03;25.17;;;6.45;;
18082;SDS011;9168;51.194;6.840;2024-02-21T01:03:29;20.60;;;6.50;;
18082;SDS011;9168;51.194;6.840;2024-02-21T01:05:58;18.75;;;6.35;;
18082;SDS011;9168;51.194;6.840;2024-02-21T01:08:24;28.33;;;6.78;;
18082;SDS011;9168;51.194;6.840;2024-02-21T01:10:51;16.83;;;5.72;;
18082;SDS011;9168;51.194;6.840;2024-02-21T01:13:18;18.55;;;5.60;;
18082;SDS011;9168;51.194;6.840;2024-02-21T01:15:45;22.67;;;5.95;;
18082;SDS011;9168;51.194;6.840;2024-02-21T01:18:12;23.50;;;6.32;;
18082;SDS011;9168;51.194;6.840;2024-02-21T01:20:39;21.88;;;6.40;;
18082;SDS011;9168;51.194;6.840;2024-02-21T01:23:08;30.05;;;6.53;;
18082;SDS011;9168;51.194;6.840;2024-02-21T01:25:34;17.67;;;5.95;;
18082;SDS011;9168;51.194;6.840;2024-02-21T01:28:01;24.10;;;6.07;;
18082;SDS011;9168;51.194;6.840;2024-02-21T01:30:28;32.45;;;6.93;;
18082;SDS011;9168;51.194;6.840;2024-02-21T01:32:55;19.35;;;5.88;;
18082;SDS011;9168;51.194;6.840;2024-02-21T01:35:22;20.38;;;6.47;;
18082;SDS011;9168;51.194;6.840;2024-02-21T01:37:49;23.30;;;7.32;;
18082;SDS011;9168;51.194;6.840;2024-02-21T01:40:18;20.13;;;6.13;;
18082;SDS011;9168;51.194;6.840;2024-02-21T01:42:45;20.50;;;6.28;;
18082;SDS011;9168;51.194;6.840;2024-02-21T01:45:13;18.33;;;5.65;;
18082;SDS011;9168;51.194;6.840;2024-02-21T01:47:40;13.38;;;5.05;;
18082;SDS011;9168;51.194;6.840;2024-02-21T01:50:07;21.15;;;6.13;;
18082;SDS011;9168;51.194;6.840;2024-02-21T01:52:35;18.55;;;6.22;;
18082;SDS011;9168;51.194;6.840;2024-02-21T01:55:02;19.15;;;5.70;;
18082;SDS011;9168;51.194;6.840;2024-02-21T01:57:34;29.83;;;5.57;;
18082;SDS011;9168;51.194;6.840;2024-02-21T02:00:01;23.63;;;5.65;;
18082;SDS011;9168;51.194;6.840;2024-02-21T02:02:28;25.70;;;6.07;;
18082;SDS011;9168;51.194;6.840;2024-02-21T02:04:55;14.55;;;4.85;;
18082;SDS011;9168;51.194;6.840;2024-02-21T02:07:23;16.08;;;5.38;;
18082;SDS011;9168;51.194;6.840;2024-02-21T02:09:49;18.90;;;5.93;;
18082;SDS011;9168;51.194;6.840;2024-02-21T02:12:16;22.25;;;7.57;;
18082;SDS011;9168;51.194;6.840;2024-02-21T02:14:45;15.57;;;5.18;;
18082;SDS011;9168;51.194;6.840;2024-02-21T02:17:11;22.73;;;5.85;;
18082;SDS011;9168;51.194;6.840;2024-02-21T02:19:38;16.70;;;4.93;;
18082;SDS011;9168;51.194;6.840;2024-02-21T02:22:08;19.58;;;5.30;;
18082;SDS011;9168;51.194;6.840;2024-02-21T02:24:42;19.13;;;5.20;;
18082;SDS011;9168;51.194;6.840;2024-02-21T02:27:09;16.42;;;4.95;;
18082;SDS011;9168;51.194;6.840;2024-02-21T02:29:36;21.23;;;5.07;;
18082;SDS011;9168;51.194;6.840;2024-02-21T02:32:03;18.35;;;4.97;;
18082;SDS011;9168;51.194;6.840;2024-02-21T02:34:30;19.13;;;5.63;;
18082;SDS011;9168;51.194;6.840;2024-02-21T02:36:57;17.98;;;5.85;;
18082;SDS011;9168;51.194;6.840;2024-02-21T02:39:24;19.05;;;5.28;;
18082;SDS011;9168;51.194;6.840;2024-02-21T02:41:52;22.10;;;5.55;;
18082;SDS011;9168;51.194;6.840;2024-02-21T02:44:19;21.23;;;5.55;;
18082;SDS011;9168;51.194;6.840;2024-02-21T02:46:46;20.33;;;6.53;;
18082;SDS011;9168;51.194;6.840;2024-02-21T02:49:13;16.70;;;4.95;;
18082;SDS011;9168;51.194;6.840;2024-02-21T02:51:41;18.02;;;5.35;;
18082;SDS011;9168;51.194;6.840;2024-02-21T02:54:08;15.43;;;4.93;;
18082;SDS011;9168;51.194;6.840;2024-02-21T02:56:35;18.00;;;5.10;;
18082;SDS011;9168;51.194;6.840;2024-02-21T02:59:03;14.50;;;4.68;;
18082;SDS011;9168;51.194;6.840;2024-02-21T03:01:33;14.52;;;5.43;;
18082;SDS011;9168;51.194;6.840;2024-02-21T03:04:00;17.20;;;5.45;;
18082;SDS011;9168;51.194;6.840;2024-02-21T03:06:27;17.55;;;5.65;;
18082;SDS011;9168;51.194;6.840;2024-02-21T03:08:53;23.17;;;6.28;;
18082;SDS011;9168;51.194;6.840;2024-02-21T03:11:21;16.98;;;4.95;;
18082;SDS011;9168;51.194;6.840;2024-02-21T03:13:53;17.05;;;5.55;;
18082;SDS011;9168;51.194;6.840;2024-02-21T03:16:22;15.43;;;4.85;;
18082;SDS011;9168;51.194;6.840;2024-02-21T03:18:49;15.75;;;4.82;;
18082;SDS011;9168;51.194;6.840;2024-02-21T03:21:16;17.90;;;5.60;;
18082;SDS011;9168;51.194;6.840;2024-02-21T03:23:42;14.98;;;5.15;;
18082;SDS011;9168;51.194;6.840;2024-02-21T03:26:09;20.85;;;5.38;;
18082;SDS011;9168;51.194;6.840;2024-02-21T03:28:36;16.70;;;5.97;;
18082;SDS011;9168;51.194;6.840;2024-02-21T03:31:04;15.18;;;4.75;;
18082;SDS011;9168;51.194;6.840;2024-02-21T03:33:32;11.88;;;5.13;;
18082;SDS011;9168;51.194;6.840;2024-02-21T03:35:59;17.25;;;4.60;;
18082;SDS011;9168;51.194;6.840;2024-02-21T03:38:26;18.10;;;5.38;;
18082;SDS011;9168;51.194;6.840;2024-02-21T03:40:53;20.95;;;5.10;;
18082;SDS011;9168;51.194;6.840;2024-02-21T03:43:20;20.05;;;5.63;;
18082;SDS011;9168;51.194;6.840;2024-02-21T03:45:47;20.05;;;5.03;;
18082;SDS011;9168;51.194;6.840;2024-02-21T03:48:13;19.73;;;5.72;;
18082;SDS011;9168;51.194;6.840;2024-02-21T03:50:42;17.75;;;5.22;;
18082;SDS011;9168;51.194;6.840;2024-02-21T03:53:09;14.57;;;4.63;;
18082;SDS011;9168;51.194;6.840;2024-02-21T03:55:36;13.38;;;4.80;;
18082;SDS011;9168;51.194;6.840;2024-02-21T03:58:02;17.10;;;5.10;;
18082;SDS011;9168;51.194;6.840;2024-02-21T04:00:29;21.88;;;5.10;;
18082;SDS011;9168;51.194;6.840;2024-02-21T04:02:55;21.35;;;4.78;;
18082;SDS011;9168;51.194;6.840;2024-02-21T04:05:22;15.13;;;5.00;;
18082;SDS011;9168;51.194;6.840;2024-02-21T04:07:50;12.35;;;4.60;;
18082;SDS011;9168;51.194;6.840;2024-02-21T04:10:17;19.23;;;4.70;;
18082;SDS011;9168;51.194;6.840;2024-02-21T04:12:44;11.18;;;4.28;;
18082;SDS011;9168;51.194;6.840;2024-02-21T04:15:11;17.23;;;4.72;;
18082;SDS011;9168;51.194;6.840;2024-02-21T04:17:38;13.90;;;4.15;;
18082;SDS011;9168;51.194;6.840;2024-02-21T04:20:05;18.40;;;4.82;;
18082;SDS011;9168;51.194;6.840;2024-02-21T04:22:33;18.63;;;4.68;;
18082;SDS011;9168;51.194;6.840;2024-02-21T04:25:02;15.23;;;4.90;;
18082;SDS011;9168;51.194;6.840;2024-02-21T04:27:29;10.63;;;4.20;;
18082;SDS011;9168;51.194;6.840;2024-02-21T04:29:56;21.40;;;4.28;;
18082;SDS011;9168;51.194;6.840;2024-02-21T04:32:23;25.05;;;4.90;;
18082;SDS011;9168;51.194;6.840;2024-02-21T04:34:52;13.30;;;4.32;;
18082;SDS011;9168;51.194;6.840;2024-02-21T04:37:19;16.67;;;5.18;;
18082;SDS011;9168;51.194;6.840;2024-02-21T04:39:48;11.90;;;4.38;;
18082;SDS011;9168;51.194;6.840;2024-02-21T04:42:17;14.13;;;4.05;;
18082;SDS011;9168;51.194;6.840;2024-02-21T04:44:44;18.35;;;4.63;;
18082;SDS011;9168;51.194;6.840;2024-02-21T04:47:10;9.80;;;4.03;;
18082;SDS011;9168;51.194;6.840;2024-02-21T04:49:38;20.42;;;5.05;;
18082;SDS011;9168;51.194;6.840;2024-02-21T04:52:05;16.55;;;4.57;;
18082;SDS011;9168;51.194;6.840;2024-02-21T04:54:32;14.48;;;4.85;;
18082;SDS011;9168;51.194;6.840;2024-02-21T04:57:00;15.18;;;3.90;;
18082;SDS011;9168;51.194;6.840;2024-02-21T04:59:28;20.98;;;5.07;;
18082;SDS011;9168;51.194;6.840;2024-02-21T05:01:55;16.13;;;4.05;;
18082;SDS011;9168;51.194;6.840;2024-02-21T05:04:23;15.43;;;4.13;;
18082;SDS011;9168;51.194;6.840;2024-02-21T05:06:50;10.20;;;3.85;;
18082;SDS011;9168;51.194;6.840;2024-02-21T05:09:17;12.10;;;4.28;;
18082;SDS011;9168;51.194;6.840;2024-02-21T05:11:44;15.32;;;4.00;;
18082;SDS011;9168;51.194;6.840;2024-02-21T05:14:11;16.85;;;4.05;;
18082;SDS011;9168;51.194;6.840;2024-02-21T05:16:39;13.43;;;4.10;;
18082;SDS011;9168;51.194;6.840;2024-02-21T05:19:06;16.90;;;4.00;;
18082;SDS011;9168;51.194;6.840;2024-02-21T05:21:33;20.27;;;3.85;;
18082;SDS011;9168;51.194;6.840;2024-02-21T05:24:00;15.95;;;4.38;;
18082;SDS011;9168;51.194;6.840;2024-02-21T05:26:27;16.92;;;4.20;;
18082;SDS011;9168;51.194;6.840;2024-02-21T05:28:54;11.95;;;3.88;;
18082;SDS011;9168;51.194;6.840;2024-02-21T05:31:21;12.57;;;4.28;;
18082;SDS011;9168;51.194;6.840;2024-02-21T05:33:49;18.30;;;4.60;;
18082;SDS011;9168;51.194;6.840;2024-02-21T05:36:16;11.07;;;4.40;;
18082;SDS011;9168;51.194;6.840;2024-02-21T05:38:43;21.17;;;4.07;;
18082;SDS011;9168;51.194;6.840;2024-02-21T05:41:10;18.10;;;4.05;;
18082;SDS011;9168;51.194;6.840;2024-02-21T05:43:37;14.68;;;3.95;;
18082;SDS011;9168;51.194;6.840;2024-02-21T05:46:03;17.45;;;4.35;;
18082;SDS011;9168;51.194;6.840;2024-02-21T05:48:30;11.88;;;3.72;;
18082;SDS011;9168;51.194;6.840;2024-02-21T05:50:58;15.73;;;4.15;;
18082;SDS011;9168;51.194;6.840;2024-02-21T05:53:28;15.15;;;3.83;;
18082;SDS011;9168;51.194;6.840;2024-02-21T05:55:55;14.52;;;4.47;;
18082;SDS011;9168;51.194;6.840;2024-02-21T05:58:22;15.63;;;3.65;;
18082;SDS011;9168;51.194;6.840;2024-02-21T06:00:49;14.57;;;3.63;;
18082;SDS011;9168;51.194;6.840;2024-02-21T06:03:16;13.55;;;4.10;;
18082;SDS011;9168;51.194;6.840;2024-02-21T06:05:44;12.27;;;3.55;;
18082;SDS011;9168;51.194;6.840;2024-02-21T06:08:12;10.88;;;3.70;;
18082;SDS011;9168;51.194;6.840;2024-02-21T06:10:39;15.45;;;3.65;;
18082;SDS011;9168;51.194;6.840;2024-02-21T06:13:05;15.40;;;3.38;;
18082;SDS011;9168;51.194;6.840;2024-02-21T06:15:32;12.15;;;3.05;;
18082;SDS011;9168;51.194;6.840;2024-02-21T06:17:59;8.57;;;2.78;;
18082;SDS011;9168;51.194;6.840;2024-02-21T06:20:26;10.48;;;3.60;;
18082;SDS011;9168;51.194;6.840;2024-02-21T06:22:53;16.58;;;3.75;;
18082;SDS011;9168;51.194;6.840;2024-02-21T06:25:21;12.85;;;4.05;;
18082;SDS011;9168;51.194;6.840;2024-02-21T06:27:48;13.85;;;3.63;;
18082;SDS011;9168;51.194;6.840;2024-02-21T06:30:15;18.17;;;4.53;;
18082;SDS011;9168;51.194;6.840;2024-02-21T06:32:42;15.35;;;4.10;;
18082;SDS011;9168;51.194;6.840;2024-02-21T06:35:08;11.95;;;3.97;;
18082;SDS011;9168;51.194;6.840;2024-02-21T06:37:35;8.10;;;3.28;;
18082;SDS011;9168;51.194;6.840;2024-02-21T06:40:03;19.45;;;4.32;;
18082;SDS011;9168;51.194;6.840;2024-02-21T06:42:32;19.77;;;4.13;;
18082;SDS011;9168;51.194;6.840;2024-02-21T06:44:59;13.93;;;4.15;;
18082;SDS011;9168;51.194;6.840;2024-02-21T06:47:26;14.40;;;3.85;;
18082;SDS011;9168;51.194;6.840;2024-02-21T06:49:53;12.38;;;3.60;;
18082;SDS011;9168;51.194;6.840;2024-02-21T06:52:20;15.23;;;3.90;;
18082;SDS011;9168;51.194;6.840;2024-02-21T06:54:47;13.93;;;3.40;;
18082;SDS011;9168;51.194;6.840;2024-02-21T06:57:14;12.40;;;3.60;;
18082;SDS011;9168;51.194;6.840;2024-02-21T06:59:43;20.58;;;4.07;;
18082;SDS011;9168;51.194;6.840;2024-02-21T07:02:10;17.48;;;4.00;;
18082;SDS011;9168;51.194;6.840;2024-02-21T07:04:36;13.32;;;3.67;;
18082;SDS011;9168;51.194;6.840;2024-02-21T07:07:03;8.52;;;3.28;;
18082;SDS011;9168;51.194;6.840;2024-02-21T07:09:30;11.00;;;3.50;;
18082;SDS011;9168;51.194;6.840;2024-02-21T07:11:57;10.43;;;3.35;;
18082;SDS011;9168;51.194;6.840;2024-02-21T07:14:24;18.42;;;3.22;;
18082;SDS011;9168;51.194;6.840;2024-02-21T07:16:54;10.93;;;3.13;;
18082;SDS011;9168;51.194;6.840;2024-02-21T07:19:22;10.07;;;3.40;;
18082;SDS011;9168;51.194;6.840;2024-02-21T07:21:49;9.30;;;2.72;;
18082;SDS011;9168;51.194;6.840;2024-02-21T07:24:16;9.02;;;3.03;;
18082;SDS011;9168;51.194;6.840;2024-02-21T07:26:43;11.45;;;2.92;;
18082;SDS011;9168;51.194;6.840;2024-02-21T07:29:10;10.80;;;3.30;;
18082;SDS011;9168;51.194;6.840;2024-02-21T07:31:40;18.40;;;3.60;;
18082;SDS011;9168;51.194;6.840;2024-02-21T07:34:09;11.48;;;3.65;;
18082;SDS011;9168;51.194;6.840;2024-02-21T07:36:36;13.07;;;3.03;;
18082;SDS011;9168;51.194;6.840;2024-02-21T07:39:03;17.05;;;3.22;;
18082;SDS011;9168;51.194;6.840;2024-02-21T07:41:30;8.82;;;2.70;;
18082;SDS011;9168;51.194;6.840;2024-02-21T07:43:58;6.75;;;2.45;;
18082;SDS011;9168;51.194;6.840;2024-02-21T07:46:25;10.27;;;2.53;;
18082;SDS011;9168;51.194;6.840;2024-02-21T07:48:52;11.35;;;2.92;;
18082;SDS011;9168;51.194;6.840;2024-02-21T07:51:20;9.80;;;2.67;;
18082;SDS011;9168;51.194;6.840;2024-02-21T07:53:47;7.25;;;2.97;;
18082;SDS011;9168;51.194;6.840;2024-02-21T07:56:14;7.82;;;2.60;;
18082;SDS011;9168;51.194;6.840;2024-02-21T07:58:41;11.55;;;2.85;;
18082;SDS011;9168;51.194;6.840;2024-02-21T08:01:09;12.90;;;2.92;;
18082;SDS011;9168;51.194;6.840;2024-02-21T08:03:36;10.93;;;3.33;;
18082;SDS011;9168;51.194;6.840;2024-02-21T08:06:03;13.43;;;2.70;;
18082;SDS011;9168;51.194;6.840;2024-02-21T08:08:32;15.90;;;3.33;;
18082;SDS011;9168;51.194;6.840;2024-02-21T08:10:59;13.80;;;3.00;;
18082;SDS011;9168;51.194;6.840;2024-02-21T08:13:25;21.02;;;3.33;;
18082;SDS011;9168;51.194;6.840;2024-02-21T08:15:53;15.40;;;3.17;;
18082;SDS011;9168;51.194;6.840;2024-02-21T08:18:20;10.50;;;2.80;;
18082;SDS011;9168;51.194;6.840;2024-02-21T08:20:47;15.10;;;3.10;;
18082;SDS011;9168;51.194;6.840;2024-02-21T08:23:15;17.42;;;3.58;;
18082;SDS011;9168;51.194;6.840;2024-02-21T08:25:44;8.30;;;2.70;;
18082;SDS011;9168;51.194;6.840;2024-02-21T08:28:11;14.57;;;4.10;;
18082;SDS011;9168;51.194;6.840;2024-02-21T08:30:38;12.07;;;3.10;;
18082;SDS011;9168;51.194;6.840;2024-02-21T08:33:05;12.13;;;3.42;;
18082;SDS011;9168;51.194;6.840;2024-02-21T08:35:32;10.98;;;3.35;;
18082;SDS011;9168;51.194;6.840;2024-02-21T08:37:58;13.82;;;3.65;;
18082;SDS011;9168;51.194;6.840;2024-02-21T08:40:25;14.63;;;3.17;;
18082;SDS011;9168;51.194;6.840;2024-02-21T08:42:53;12.32;;;2.90;;
18082;SDS011;9168;51.194;6.840;2024-02-21T08:45:20;15.50;;;3.42;;
18082;SDS011;9168;51.194;6.840;2024-02-21T08:47:47;9.55;;;3.22;;
18082;SDS011;9168;51.194;6.840;2024-02-21T08:50:14;11.35;;;3.33;;
18082;SDS011;9168;51.194;6.840;2024-02-21T08:52:41;10.45;;;2.80;;
18082;SDS011;9168;51.194;6.840;2024-02-21T08:55:08;11.23;;;3.42;;
18082;SDS011;9168;51.194;6.840;2024-02-21T08:57:35;11.57;;;2.95;;
18082;SDS011;9168;51.194;6.840;2024-02-21T09:00:05;16.63;;;3.40;;
18082;SDS011;9168;51.194;6.840;2024-02-21T09:02:35;13.35;;;3.40;;
18082;SDS011;9168;51.194;6.840;2024-02-21T09:05:03;12.10;;;3.25;;
18082;SDS011;9168;51.194;6.840;2024-02-21T09:07:31;14.55;;;4.00;;
18082;SDS011;9168;51.194;6.840;2024-02-21T09:09:58;9.73;;;2.88;;
18082;SDS011;9168;51.194;6.840;2024-02-21T09:12:25;12.10;;;3.50;;
18082;SDS011;9168;51.194;6.840;2024-02-21T09:14:51;16.80;;;3.50;;
18082;SDS011;9168;51.194;6.840;2024-02-21T09:17:20;19.40;;;3.83;;
18082;SDS011;9168;51.194;6.840;2024-02-21T09:19:47;16.73;;;3.63;;
18082;SDS011;9168;51.194;6.840;2024-02-21T09:22:13;17.33;;;3.58;;
18082;SDS011;9168;51.194;6.840;2024-02-21T09:24:40;19.58;;;4.40;;
18082;SDS011;9168;51.194;6.840;2024-02-21T09:27:07;9.48;;;3.30;;
18082;SDS011;9168;51.194;6.840;2024-02-21T09:29:34;16.50;;;3.60;;
18082;SDS011;9168;51.194;6.840;2024-02-21T09:32:01;11.32;;;3.53;;
18082;SDS011;9168;51.194;6.840;2024-02-21T09:34:30;12.85;;;3.42;;
18082;SDS011;9168;51.194;6.840;2024-02-21T09:36:57;11.90;;;3.13;;
18082;SDS011;9168;51.194;6.840;2024-02-21T09:39:23;11.75;;;3.63;;
18082;SDS011;9168;51.194;6.840;2024-02-21T09:41:53;13.48;;;3.45;;
18082;SDS011;9168;51.194;6.840;2024-02-21T09:44:22;10.52;;;3.25;;
18082;SDS011;9168;51.194;6.840;2024-02-21T09:46:52;13.27;;;4.15;;
18082;SDS011;9168;51.194;6.840;2024-02-21T09:49:25;14.35;;;3.50;;
18082;SDS011;9168;51.194;6.840;2024-02-21T09:51:59;14.50;;;4.00;;
18082;SDS011;9168;51.194;6.840;2024-02-21T09:54:28;13.05;;;3.75;;
18082;SDS011;9168;51.194;6.840;2024-02-21T09:56:57;13.27;;;3.42;;
18082;SDS011;9168;51.194;6.840;2024-02-21T09:59:24;17.00;;;3.50;;
18082;SDS011;9168;51.194;6.840;2024-02-21T10:01:53;10.07;;;3.00;;
18082;SDS011;9168;51.194;6.840;2024-02-21T10:04:20;14.45;;;3.22;;
18082;SDS011;9168;51.194;6.840;2024-02-21T10:06:49;9.98;;;3.35;;
18082;SDS011;9168;51.194;6.840;2024-02-21T10:09:22;8.05;;;2.92;;
18082;SDS011;9168;51.194;6.840;2024-02-21T10:11:52;9.73;;;3.30;;
18082;SDS011;9168;51.194;6.840;2024-02-21T10:14:19;10.30;;;3.05;;
18082;SDS011;9168;51.194;6.840;2024-02-21T10:16:47;9.00;;;2.53;;
18082;SDS011;9168;51.194;6.840;2024-02-21T10:19:17;6.95;;;2.70;;
18082;SDS011;9168;51.194;6.840;2024-02-21T10:21:59;8.32;;;2.53;;
18082;SDS011;9168;51.194;6.840;2024-02-21T10:24:28;6.20;;;2.63;;
18082;SDS011;9168;51.194;6.840;2024-02-21T10:26:59;8.77;;;2.47;;
18082;SDS011;9168;51.194;6.840;2024-02-21T10:29:28;9.32;;;2.38;;
18082;SDS011;9168;51.194;6.840;2024-02-21T10:32:03;11.88;;;2.35;;
18082;SDS011;9168;51.194;6.840;2024-02-21T10:34:31;8.60;;;2.58;;
18082;SDS011;9168;51.194;6.840;2024-02-21T10:37:03;6.68;;;2.33;;
18082;SDS011;9168;51.194;6.840;2024-02-21T10:39:31;6.45;;;2.47;;
18082;SDS011;9168;51.194;6.840;2024-02-21T10:41:59;9.45;;;2.78;;
18082;SDS011;9168;51.194;6.840;2024-02-21T10:44:29;9.45;;;2.60;;
18082;SDS011;9168;51.194;6.840;2024-02-21T10:46:57;8.65;;;2.42;;
18082;SDS011;9168;51.194;6.840;2024-02-21T10:49:25;9.25;;;2.78;;
18082;SDS011;9168;51.194;6.840;2024-02-21T10:51:54;17.42;;;3.03;;
18082;SDS011;9168;51.194;6.840;2024-02-21T10:54:45;11.52;;;3.00;;
18082;SDS011;9168;51.194;6.840;2024-02-21T10:57:15;12.15;;;2.83;;
18082;SDS011;9168;51.194;6.840;2024-02-21T10:59:44;11.38;;;2.55;;
18082;SDS011;9168;51.194;6.840;2024-02-21T11:02:11;13.05;;;2.80;;
18082;SDS011;9168;51.194;6.840;2024-02-21T11:04:38;14.38;;;2.50;;
18082;SDS011;9168;51.194;6.840;2024-02-21T11:07:06;8.73;;;2.50;;
18082;SDS011;9168;51.194;6.840;2024-02-21T11:09:34;8.05;;;2.13;;
18082;SDS011;9168;51.194;6.840;2024-02-21T11:12:03;15.75;;;2.83;;
18082;SDS011;9168;51.194;6.840;2024-02-21T11:14:31;9.23;;;2.60;;
18082;SDS011;9168;51.194;6.840;2024-02-21T11:17:01;9.52;;;2.55;;
18082;SDS011;9168;51.194;6.840;2024-02-21T11:19:28;9.63;;;2.25;;
18082;SDS011;9168;51.194;6.840;2024-02-21T11:22:04;11.20;;;2.53;;
18082;SDS011;9168;51.194;6.840;2024-02-21T11:25:06;7.53;;;2.25;;
18082;SDS011;9168;51.194;6.840;2024-02-21T11:27:38;11.68;;;3.38;;
18082;SDS011;9168;51.194;6.840;2024-02-21T11:30:05;10.90;;;2.45;;
18082;SDS011;9168;51.194;6.840;2024-02-21T11:32:32;13.95;;;3.00;;
18082;SDS011;9168;51.194;6.840;2024-02-21T11:34:59;10.95;;;2.72;;
18082;SDS011;9168;51.194;6.840;2024-02-21T11:37:29;13.88;;;2.95;;
18082;SDS011;9168;51.194;6.840;2024-02-21T11:39:58;14.98;;;3.00;;
18082;SDS011;9168;51.194;6.840;2024-02-21T11:42:25;10.40;;;2.47;;
18082;SDS011;9168;51.194;6.840;2024-02-21T11:44:54;10.05;;;2.53;;
18082;SDS011;9168;51.194;6.840;2024-02-21T11:47:22;10.73;;;2.65;;
18082;SDS011;9168;51.194;6.840;2024-02-21T11:49:49;4.60;;;2.30;;
18082;SDS011;9168;51.194;6.840;2024-02-21T11:52:19;9.25;;;2.83;;
18082;SDS011;9168;51.194;6.840;2024-02-21T11:54:50;13.55;;;2.58;;
18082;SDS011;9168;51.194;6.840;2024-02-21T11:57:17;7.47;;;2.25;;
18082;SDS011;9168;51.194;6.840;2024-02-21T11:59:44;6.53;;;2.22;;
18082;SDS011;9168;51.194;6.840;2024-02-21T12:02:13;9.85;;;2.30;;
18082;SDS011;9168;51.194;6.840;2024-02-21T12:04:40;9.85;;;2.10;;
18082;SDS011;9168;51.194;6.840;2024-02-21T12:07:08;9.70;;;2.53;;
18082;SDS011;9168;51.194;6.840;2024-02-21T12:09:35;4.57;;;1.67;;
18082;SDS011;9168;51.194;6.840;2024-02-21T12:12:02;10.65;;;2.58;;
18082;SDS011;9168;51.194;6.840;2024-02-21T12:14:31;11.50;;;2.58;;
18082;SDS011;9168;51.194;6.840;2024-02-21T12:16:58;10.80;;;2.17;;
18082;SDS011;9168;51.194;6.840;2024-02-21T12:19:28;10.68;;;1.95;;
18082;SDS011;9168;51.194;6.840;2024-02-21T12:21:55;10.00;;;2.50;;
18082;SDS011;9168;51.194;6.840;2024-02-21T12:24:23;9.88;;;2.28;;
18082;SDS011;9168;51.194;6.840;2024-02-21T12:26:51;9.95;;;2.38;;
18082;SDS011;9168;51.194;6.840;2024-02-21T12:29:18;5.88;;;2.00;;
18082;SDS011;9168;51.194;6.840;2024-02-21T12:31:45;7.47;;;1.88;;
18082;SDS011;9168;51.194;6.840;2024-02-21T12:34:12;6.47;;;1.98;;
18082;SDS011;9168;51.194;6.840;2024-02-21T12:36:42;11.00;;;2.65;;
18082;SDS011;9168;51.194;6.840;2024-02-21T12:39:09;7.53;;;2.38;;
18082;SDS011;9168;51.194;6.840;2024-02-21T12:41:37;10.13;;;2.22;;
18082;SDS011;9168;51.194;6.840;2024-02-21T12:44:05;11.25;;;2.53;;
18082;SDS011;9168;51.194;6.840;2024-02-21T12:46:33;13.40;;;2.10;;
18082;SDS011;9168;51.194;6.840;2024-02-21T12:49:00;6.78;;;2.35;;
18082;SDS011;9168;51.194;6.840;2024-02-21T12:51:28;13.15;;;2.42;;
18082;SDS011;9168;51.194;6.840;2024-02-21T12:53:56;13.38;;;2.35;;
18082;SDS011;9168;51.194;6.840;2024-02-21T12:56:24;19.60;;;2.70;;
18082;SDS011;9168;51.194;6.840;2024-02-21T12:58:52;11.02;;;2.35;;
18082;SDS011;9168;51.194;6.840;2024-02-21T13:01:19;9.30;;;2.13;;
18082;SDS011;9168;51.194;6.840;2024-02-21T13:03:46;5.90;;;1.85;;
18082;SDS011;9168;51.194;6.840;2024-02-21T13:06:13;11.88;;;2.50;;
18082;SDS011;9168;51.194;6.840;2024-02-21T13:08:40;11.65;;;2.38;;
18082;SDS011;9168;51.194;6.840;2024-02-21T13:11:08;8.38;;;2.00;;
18082;SDS011;9168;51.194;6.840;2024-02-21T13:13:36;10.50;;;2.00;;
18082;SDS011;9168;51.194;6.840;2024-02-21T13:16:05;9.32;;;2.50;;
18082;SDS011;9168;51.194;6.840;2024-02-21T13:18:32;7.85;;;2.28;;
18082;SDS011;9168;51.194;6.840;2024-02-21T13:21:03;7.60;;;2.25;;
18082;SDS011;9168;51.194;6.840;2024-02-21T13:23:33;8.05;;;2.35;;
18082;SDS011;9168;51.194;6.840;2024-02-21T13:26:00;6.05;;;2.25;;
18082;SDS011;9168;51.194;6.840;2024-02-21T13:28:28;6.78;;;2.20;;
18082;SDS011;9168;51.194;6.840;2024-02-21T13:30:58;8.63;;;2.13;;
18082;SDS011;9168;51.194;6.840;2024-02-21T13:33:24;6.45;;;2.10;;
18082;SDS011;9168;51.194;6.840;2024-02-21T13:35:52;9.05;;;2.30;;
18082;SDS011;9168;51.194;6.840;2024-02-21T13:38:18;8.27;;;1.90;;
18082;SDS011;9168;51.194;6.840;2024-02-21T13:40:45;8.63;;;2.15;;
18082;SDS011;9168;51.194;6.840;2024-02-21T13:43:12;8.30;;;2.00;;
18082;SDS011;9168;51.194;6.840;2024-02-21T13:45:40;5.65;;;1.75;;
18082;SDS011;9168;51.194;6.840;2024-02-21T13:48:22;8.13;;;2.00;;
18082;SDS011;9168;51.194;6.840;2024-02-21T13:50:49;4.75;;;1.98;;
18082;SDS011;9168;51.194;6.840;2024-02-21T13:53:16;8.00;;;2.08;;
18082;SDS011;9168;51.194;6.840;2024-02-21T13:55:43;8.25;;;2.03;;
18082;SDS011;9168;51.194;6.840;2024-02-21T13:58:10;6.05;;;1.98;;
18082;SDS011;9168;51.194;6.840;2024-02-21T14:00:37;10.88;;;2.00;;
18082;SDS011;9168;51.194;6.840;2024-02-21T14:03:05;6.45;;;2.00;;
18082;SDS011;9168;51.194;6.840;2024-02-21T14:05:32;7.93;;;2.63;;
18082;SDS011;9168;51.194;6.840;2024-02-21T14:07:59;8.00;;;1.90;;
18082;SDS011;9168;51.194;6.840;2024-02-21T14:10:26;7.95;;;1.90;;
18082;SDS011;9168;51.194;6.840;2024-02-21T14:12:54;10.65;;;2.30;;
18082;SDS011;9168;51.194;6.840;2024-02-21T14:15:22;4.50;;;2.05;;
18082;SDS011;9168;51.194;6.840;2024-02-21T14:17:50;7.03;;;1.85;;
18082;SDS011;9168;51.194;6.840;2024-02-21T14:20:18;11.35;;;2.40;;
18082;SDS011;9168;51.194;6.840;2024-02-21T14:22:45;12.30;;;2.05;;
18082;SDS011;9168;51.194;6.840;2024-02-21T14:25:12;8.48;;;1.95;;
18082;SDS011;9168;51.194;6.840;2024-02-21T14:27:40;6.82;;;2.03;;
18082;SDS011;9168;51.194;6.840;2024-02-21T14:30:09;5.55;;;1.95;;
18082;SDS011;9168;51.194;6.840;2024-02-21T14:32:36;6.40;;;1.40;;
18082;SDS011;9168;51.194;6.840;2024-02-21T14:35:03;6.25;;;1.92;;
18082;SDS011;9168;51.194;6.840;2024-02-21T14:37:32;2.28;;;1.33;;
18082;SDS011;9168;51.194;6.840;2024-02-21T14:39:59;10.18;;;1.88;;
18082;SDS011;9168;51.194;6.840;2024-02-21T14:42:26;4.80;;;1.90;;
18082;SDS011;9168;51.194;6.840;2024-02-21T14:44:53;9.95;;;1.85;;
18082;SDS011;9168;51.194;6.840;2024-02-21T14:47:28;6.10;;;1.92;;
18082;SDS011;9168;51.194;6.840;2024-02-21T14:49:56;8.20;;;1.92;;
18082;SDS011;9168;51.194;6.840;2024-02-21T14:52:23;7.45;;;1.98;;
18082;SDS011;9168;51.194;6.840;2024-02-21T14:54:53;4.53;;;1.65;;